sensor_id;sensor_type;location;lat;lon;timestamp;pressure;altitude;pressure_sealevel;temperature;humidity
21664;BME280;10993;52.510;13.456;2024-01-27T00:04:08;56923.22;;;-146.93;79.15
21664;BME280;10993;52.510;13.456;2024-01-27T00:09:09;56870.59;;;-146.93;79.29
21664;BME280;10993;52.510;13.456;2024-01-27T00:14:09;56921.22;;;-146.93;79.12
21664;BME280;10993;52.510;13.456;2024-01-27T00:19:11;56884.75;;;-146.93;79.53
21664;BME280;10993;52.510;13.456;2024-01-27T00:24:13;56953.59;;;-146.93;80.17
21664;BME280;10993;52.510;13.456;2024-01-27T00:29:13;56880.72;;;-146.93;80.48
21664;BME280;10993;52.510;13.456;2024-01-27T00:34:15;56941.44;;;-146.93;80.84
21664;BME280;10993;52.510;13.456;2024-01-27T00:39:15;57536.84;;;-146.93;81.17
21664;BME280;10993;52.510;13.456;2024-01-27T00:44:15;56929.31;;;-146.93;80.82
21664;BME280;10993;52.510;13.456;2024-01-27T00:49:18;56905.00;;;-146.93;79.97
21664;BME280;10993;52.510;13.456;2024-01-27T00:54:18;56880.72;;;-146.93;79.10
21664;BME280;10993;52.510;13.456;2024-01-27T00:59:18;56884.75;;;-146.93;79.18
21664;BME280;10993;52.510;13.456;2024-01-27T01:04:20;56876.66;;;-146.93;77.93
21664;BME280;10993;52.510;13.456;2024-01-27T01:09:20;56848.31;;;-146.93;76.82
21664;BME280;10993;52.510;13.456;2024-01-27T01:14:21;56840.22;;;-146.93;76.43
21664;BME280;10993;52.510;13.456;2024-01-27T01:19:22;56801.75;;;-146.93;75.58
21664;BME280;10993;52.510;13.456;2024-01-27T01:24:23;56801.75;;;-146.93;75.39
21664;BME280;10993;52.510;13.456;2024-01-27T01:29:23;56791.63;;;-146.93;75.30
21664;BME280;10993;52.510;13.456;2024-01-27T01:34:25;56830.09;;;-146.93;76.20
21664;BME280;10993;52.510;13.456;2024-01-27T01:39:25;56785.53;;;-146.93;76.87
21664;BME280;10993;52.510;13.456;2024-01-27T01:44:29;56838.19;;;-146.93;76.96
21664;BME280;10993;52.510;13.456;2024-01-27T01:49:31;56828.06;;;-146.93;76.76
21664;BME280;10993;52.510;13.456;2024-01-27T01:54:31;56803.75;;;-146.93;77.40
21664;BME280;10993;52.510;13.456;2024-01-27T01:59:32;56819.97;;;-146.93;77.39
21664;BME280;10993;52.510;13.456;2024-01-27T02:04:40;56907.03;;;-146.93;77.70
21664;BME280;10993;52.510;13.456;2024-01-27T02:09:41;56807.81;;;-146.93;78.21
21664;BME280;10993;52.510;13.456;2024-01-27T02:14:41;56817.94;;;-146.93;77.90
21664;BME280;10993;52.510;13.456;2024-01-27T02:19:42;56864.50;;;-146.93;77.60
21664;BME280;10993;52.510;13.456;2024-01-27T02:24:44;56836.16;;;-146.93;77.19
21664;BME280;10993;52.510;13.456;2024-01-27T02:29:46;56830.09;;;-146.93;77.19
21664;BME280;10993;52.510;13.456;2024-01-27T02:34:47;56844.25;;;-146.93;77.23
21664;BME280;10993;52.510;13.456;2024-01-27T02:39:48;56828.06;;;-146.93;77.21
21664;BME280;10993;52.510;13.456;2024-01-27T02:44:49;56860.47;;;-146.93;77.94
21664;BME280;10993;52.510;13.456;2024-01-27T02:49:49;56872.59;;;-146.93;77.81
21664;BME280;10993;52.510;13.456;2024-01-27T02:54:51;56846.28;;;-146.93;77.77
21664;BME280;10993;52.510;13.456;2024-01-27T02:59:51;56850.34;;;-146.93;78.29
21664;BME280;10993;52.510;13.456;2024-01-27T03:04:51;56838.19;;;-146.93;77.99
21664;BME280;10993;52.510;13.456;2024-01-27T03:09:53;56888.81;;;-146.93;78.37
21664;BME280;10993;52.510;13.456;2024-01-27T03:14:53;56868.56;;;-146.93;78.33
21664;BME280;10993;52.510;13.456;2024-01-27T03:19:55;56882.72;;;-146.93;78.34
21664;BME280;10993;52.510;13.456;2024-01-27T03:24:56;56836.16;;;-146.93;79.27
21664;BME280;10993;52.510;13.456;2024-01-27T03:29:59;56937.41;;;-146.93;79.77
21664;BME280;10993;52.510;13.456;2024-01-27T03:35:00;56868.56;;;-146.93;80.63
21664;BME280;10993;52.510;13.456;2024-01-27T03:40:02;56959.69;;;-146.93;81.93
21664;BME280;10993;52.510;13.456;2024-01-27T03:45:03;56994.09;;;-146.93;82.68
21664;BME280;10993;52.510;13.456;2024-01-27T03:50:04;57030.56;;;-146.93;83.09
21664;BME280;10993;52.510;13.456;2024-01-27T03:55:06;57038.66;;;-146.93;83.93
21664;BME280;10993;52.510;13.456;2024-01-27T04:00:07;57071.06;;;-146.93;84.78
21664;BME280;10993;52.510;13.456;2024-01-27T04:05:08;57099.41;;;-146.93;85.58
21664;BME280;10993;52.510;13.456;2024-01-27T04:10:10;57156.09;;;-146.93;86.24
21664;BME280;10993;52.510;13.456;2024-01-27T04:15:11;57229.00;;;-146.93;87.08
21664;BME280;10993;52.510;13.456;2024-01-27T04:20:11;57247.22;;;-146.93;87.49
21664;BME280;10993;52.510;13.456;2024-01-27T04:25:13;57281.66;;;-146.93;88.18
21664;BME280;10993;52.510;13.456;2024-01-27T04:30:13;57324.19;;;-146.93;88.26
21664;BME280;10993;52.510;13.456;2024-01-27T04:35:14;57200.66;;;-146.93;88.43
21664;BME280;10993;52.510;13.456;2024-01-27T04:40:16;57374.81;;;-146.93;88.47
21664;BME280;10993;52.510;13.456;2024-01-27T04:45:16;57291.78;;;-146.93;87.53
21664;BME280;10993;52.510;13.456;2024-01-27T04:50:16;57245.22;;;-146.93;86.60
21664;BME280;10993;52.510;13.456;2024-01-27T04:55:18;57139.91;;;-146.93;85.82
21664;BME280;10993;52.510;13.456;2024-01-27T05:00:19;57172.31;;;-146.93;85.24
21664;BME280;10993;52.510;13.456;2024-01-27T05:05:19;57164.19;;;-146.93;85.15
21664;BME280;10993;52.510;13.456;2024-01-27T05:10:21;57174.31;;;-146.93;84.87
21664;BME280;10993;52.510;13.456;2024-01-27T05:15:22;57143.94;;;-146.93;84.99
21664;BME280;10993;52.510;13.456;2024-01-27T05:20:22;57188.50;;;-146.93;85.17
21664;BME280;10993;52.510;13.456;2024-01-27T05:25:24;57245.22;;;-146.93;85.94
21664;BME280;10993;52.510;13.456;2024-01-27T05:30:24;57257.34;;;-146.93;86.46
21664;BME280;10993;52.510;13.456;2024-01-27T05:35:25;57279.63;;;-146.93;87.06
21664;BME280;10993;52.510;13.456;2024-01-27T05:40:26;57224.97;;;-146.93;86.99
21664;BME280;10993;52.510;13.456;2024-01-27T05:45:27;57253.31;;;-146.93;86.65
21664;BME280;10993;52.510;13.456;2024-01-27T05:50:29;57224.97;;;-146.93;86.51
21664;BME280;10993;52.510;13.456;2024-01-27T05:55:32;57273.56;;;-146.93;86.62
21664;BME280;10993;52.510;13.456;2024-01-27T06:00:34;57245.22;;;-146.93;86.28
21664;BME280;10993;52.510;13.456;2024-01-27T06:05:34;57186.47;;;-146.93;85.86
21664;BME280;10993;52.510;13.456;2024-01-27T06:10:35;57164.19;;;-146.93;85.22
21664;BME280;10993;52.510;13.456;2024-01-27T06:15:39;57154.06;;;-146.93;84.87
21664;BME280;10993;52.510;13.456;2024-01-27T06:20:39;57156.09;;;-146.93;84.69
21664;BME280;10993;52.510;13.456;2024-01-27T06:25:42;57107.50;;;-146.93;84.44
21664;BME280;10993;52.510;13.456;2024-01-27T06:30:43;57137.88;;;-146.93;84.56
21664;BME280;10993;52.510;13.456;2024-01-27T06:35:43;57131.81;;;-146.93;84.32
21664;BME280;10993;52.510;13.456;2024-01-27T06:40:45;57135.84;;;-146.93;84.57
21664;BME280;10993;52.510;13.456;2024-01-27T06:45:45;57148.00;;;-146.93;84.39
21664;BME280;10993;52.510;13.456;2024-01-27T06:50:45;57152.06;;;-146.93;84.73
21664;BME280;10993;52.510;13.456;2024-01-27T06:55:47;57075.09;;;-146.93;84.53
21664;BME280;10993;52.510;13.456;2024-01-27T07:00:48;57176.34;;;-146.93;84.76
21664;BME280;10993;52.510;13.456;2024-01-27T07:05:48;57093.31;;;-146.93;84.59
21664;BME280;10993;52.510;13.456;2024-01-27T07:10:50;57099.41;;;-146.93;84.88
21664;BME280;10993;52.510;13.456;2024-01-27T07:15:50;57111.56;;;-146.93;83.96
21664;BME280;10993;52.510;13.456;2024-01-27T07:20:50;57097.38;;;-146.93;83.85
21664;BME280;10993;52.510;13.456;2024-01-27T07:25:52;57152.06;;;-146.93;83.73
21664;BME280;10993;52.510;13.456;2024-01-27T07:30:53;57135.84;;;-146.93;83.81
21664;BME280;10993;52.510;13.456;2024-01-27T07:35:53;57071.06;;;-146.93;83.85
21664;BME280;10993;52.510;13.456;2024-01-27T07:40:54;57095.34;;;-146.93;83.11
21664;BME280;10993;52.510;13.456;2024-01-27T07:45:55;57052.81;;;-146.93;82.43
21664;BME280;10993;52.510;13.456;2024-01-27T07:50:55;57044.72;;;-146.93;82.20
21664;BME280;10993;52.510;13.456;2024-01-27T07:55:58;56986.00;;;-146.93;81.65
21664;BME280;10993;52.510;13.456;2024-01-27T08:00:58;56975.88;;;-146.93;81.49
21664;BME280;10993;52.510;13.456;2024-01-27T08:05:59;56998.16;;;-146.93;81.05
21664;BME280;10993;52.510;13.456;2024-01-27T08:11:00;56994.09;;;-146.93;80.77
21664;BME280;10993;52.510;13.456;2024-01-27T08:16:01;56933.34;;;-146.93;81.13
21664;BME280;10993;52.510;13.456;2024-01-27T08:21:01;56998.16;;;-146.93;80.38
21664;BME280;10993;52.510;13.456;2024-01-27T08:26:03;56957.66;;;-146.93;80.59
21664;BME280;10993;52.510;13.456;2024-01-27T08:31:03;56894.88;;;-146.93;79.42
21664;BME280;10993;52.510;13.456;2024-01-27T08:36:05;56931.34;;;-146.93;79.40
21664;BME280;10993;52.510;13.456;2024-01-27T08:41:06;56882.72;;;-146.93;78.67
21664;BME280;10993;52.510;13.456;2024-01-27T08:46:07;56909.06;;;-146.93;78.50
21664;BME280;10993;52.510;13.456;2024-01-27T08:51:11;56813.88;;;-146.93;77.98
21664;BME280;10993;52.510;13.456;2024-01-27T08:56:14;56894.88;;;-146.93;76.71
21664;BME280;10993;52.510;13.456;2024-01-27T09:01:15;56850.34;;;-146.93;75.18
21664;BME280;10993;52.510;13.456;2024-01-27T09:06:16;56830.09;;;-146.93;75.12
21664;BME280;10993;52.510;13.456;2024-01-27T09:11:18;56844.25;;;-146.93;74.35
21664;BME280;10993;52.510;13.456;2024-01-27T09:16:18;56807.81;;;-146.93;74.13
21664;BME280;10993;52.510;13.456;2024-01-27T09:21:19;56828.06;;;-146.93;73.25
21664;BME280;10993;52.510;13.456;2024-01-27T09:26:24;56779.47;;;-146.93;73.48
21664;BME280;10993;52.510;13.456;2024-01-27T09:31:24;56785.53;;;-146.93;72.96
21664;BME280;10993;52.510;13.456;2024-01-27T09:36:26;56807.81;;;-146.93;71.91
21664;BME280;10993;52.510;13.456;2024-01-27T09:41:30;56730.88;;;-146.93;72.19
21664;BME280;10993;52.510;13.456;2024-01-27T09:46:32;56787.56;;;-146.93;71.97
21664;BME280;10993;52.510;13.456;2024-01-27T09:51:33;56779.47;;;-146.93;72.25
21664;BME280;10993;52.510;13.456;2024-01-27T09:56:35;57690.75;;;-146.93;72.72
21664;BME280;10993;52.510;13.456;2024-01-27T10:01:38;56771.38;;;-146.93;71.31
21664;BME280;10993;52.510;13.456;2024-01-27T10:06:40;56629.63;;;-146.93;71.30
21664;BME280;10993;52.510;13.456;2024-01-27T10:11:45;56738.97;;;-146.93;70.71
21664;BME280;10993;52.510;13.456;2024-01-27T10:16:46;56736.94;;;-146.93;69.42
21664;BME280;10993;52.510;13.456;2024-01-27T10:21:46;56763.28;;;-146.93;68.87
21664;BME280;10993;52.510;13.456;2024-01-27T10:26:48;56728.84;;;-146.93;66.16
21664;BME280;10993;52.510;13.456;2024-01-27T10:31:49;56702.53;;;-146.93;65.34
21664;BME280;10993;52.510;13.456;2024-01-27T10:36:49;56741.00;;;-146.93;66.92
21664;BME280;10993;52.510;13.456;2024-01-27T10:41:51;56722.78;;;-146.93;67.26
21664;BME280;10993;52.510;13.456;2024-01-27T10:46:52;56712.66;;;-146.93;66.61
21664;BME280;10993;52.510;13.456;2024-01-27T10:51:53;56726.81;;;-146.93;65.99
21664;BME280;10993;52.510;13.456;2024-01-27T10:56:57;56676.19;;;-146.93;64.40
21664;BME280;10993;52.510;13.456;2024-01-27T11:01:58;56623.56;;;-146.93;63.67
21664;BME280;10993;52.510;13.456;2024-01-27T11:07:00;56647.84;;;-146.93;63.80
21664;BME280;10993;52.510;13.456;2024-01-27T11:12:03;56716.69;;;-146.93;62.00
21664;BME280;10993;52.510;13.456;2024-01-27T11:17:05;56702.53;;;-146.93;62.14
21664;BME280;10993;52.510;13.456;2024-01-27T11:22:06;56704.53;;;-146.93;65.19
21664;BME280;10993;52.510;13.456;2024-01-27T11:27:07;56710.63;;;-146.93;65.10
21664;BME280;10993;52.510;13.456;2024-01-27T11:32:08;56688.34;;;-146.93;64.91
21664;BME280;10993;52.510;13.456;2024-01-27T11:37:11;56692.41;;;-146.93;63.93
21664;BME280;10993;52.510;13.456;2024-01-27T11:42:14;56666.06;;;-146.93;64.96
21664;BME280;10993;52.510;13.456;2024-01-27T11:47:17;56506.13;;;-146.93;65.10
21664;BME280;10993;52.510;13.456;2024-01-27T11:52:21;56716.69;;;-146.93;65.94
21664;BME280;10993;52.510;13.456;2024-01-27T11:57:23;56710.63;;;-146.93;66.00
21664;BME280;10993;52.510;13.456;2024-01-27T12:02:24;56726.81;;;-146.93;67.23
21664;BME280;10993;52.510;13.456;2024-01-27T12:07:25;56753.16;;;-146.93;67.81
21664;BME280;10993;52.510;13.456;2024-01-27T12:12:27;56753.16;;;-146.93;69.29
21664;BME280;10993;52.510;13.456;2024-01-27T12:17:28;56755.16;;;-146.93;68.43
21664;BME280;10993;52.510;13.456;2024-01-27T12:22:29;56763.28;;;-146.93;66.00
21664;BME280;10993;52.510;13.456;2024-01-27T12:27:32;56724.78;;;-146.93;66.76
21664;BME280;10993;52.510;13.456;2024-01-27T12:32:33;56734.91;;;-146.93;67.10
21664;BME280;10993;52.510;13.456;2024-01-27T12:37:34;56730.88;;;-146.93;68.41
21664;BME280;10993;52.510;13.456;2024-01-27T12:42:35;56747.06;;;-146.93;69.07
21664;BME280;10993;52.510;13.456;2024-01-27T12:47:36;56698.47;;;-146.93;69.50
21664;BME280;10993;52.510;13.456;2024-01-27T12:52:36;56734.91;;;-146.93;66.41
21664;BME280;10993;52.510;13.456;2024-01-27T12:57:38;56732.91;;;-146.93;66.57
21664;BME280;10993;52.510;13.456;2024-01-27T13:02:39;56728.84;;;-146.93;63.52
21664;BME280;10993;52.510;13.456;2024-01-27T13:07:40;56718.72;;;-146.93;64.30
21664;BME280;10993;52.510;13.456;2024-01-27T13:12:42;56706.56;;;-146.93;62.59
21664;BME280;10993;52.510;13.456;2024-01-27T13:17:42;56694.41;;;-146.93;64.34
21664;BME280;10993;52.510;13.456;2024-01-27T13:22:42;56629.63;;;-146.93;64.28
21664;BME280;10993;52.510;13.456;2024-01-27T13:27:44;56678.22;;;-146.93;66.43
21664;BME280;10993;52.510;13.456;2024-01-27T13:32:45;56619.50;;;-146.93;67.14
21664;BME280;10993;52.510;13.456;2024-01-27T13:37:45;56718.72;;;-146.93;68.41
21664;BME280;10993;52.510;13.456;2024-01-27T13:42:47;56730.88;;;-146.93;69.11
21664;BME280;10993;52.510;13.456;2024-01-27T13:47:48;56692.41;;;-146.93;70.15
21664;BME280;10993;52.510;13.456;2024-01-27T13:52:48;56724.78;;;-146.93;70.89
21664;BME280;10993;52.510;13.456;2024-01-27T13:57:50;56755.16;;;-146.93;70.73
21664;BME280;10993;52.510;13.456;2024-01-27T14:02:50;56720.75;;;-146.93;72.11
21664;BME280;10993;52.510;13.456;2024-01-27T14:07:51;56771.38;;;-146.93;71.38
21664;BME280;10993;52.510;13.456;2024-01-27T14:12:52;56789.59;;;-146.93;71.67
21664;BME280;10993;52.510;13.456;2024-01-27T14:17:53;56781.50;;;-146.93;73.31
21664;BME280;10993;52.510;13.456;2024-01-27T14:22:54;56775.41;;;-146.93;74.61
21664;BME280;10993;52.510;13.456;2024-01-27T14:27:55;56803.75;;;-146.93;76.36
21664;BME280;10993;52.510;13.456;2024-01-27T14:32:56;56830.09;;;-146.93;75.60
21664;BME280;10993;52.510;13.456;2024-01-27T14:37:56;56876.66;;;-146.93;76.20
21664;BME280;10993;52.510;13.456;2024-01-27T14:42:59;56828.06;;;-146.93;75.59
21664;BME280;10993;52.510;13.456;2024-01-27T14:47:59;56807.81;;;-146.93;75.85
21664;BME280;10993;52.510;13.456;2024-01-27T14:52:59;56803.75;;;-146.93;77.46
21664;BME280;10993;52.510;13.456;2024-01-27T14:58:03;56852.34;;;-146.93;77.62
21664;BME280;10993;52.510;13.456;2024-01-27T15:03:06;56870.59;;;-146.93;78.17
21664;BME280;10993;52.510;13.456;2024-01-27T15:08:06;56882.72;;;-146.93;78.05
21664;BME280;10993;52.510;13.456;2024-01-27T15:13:08;56862.47;;;-146.93;77.97
21664;BME280;10993;52.510;13.456;2024-01-27T15:18:08;56824.00;;;-146.93;78.44
21664;BME280;10993;52.510;13.456;2024-01-27T15:23:09;56874.63;;;-146.93;79.12
21664;BME280;10993;52.510;13.456;2024-01-27T15:28:10;56890.84;;;-146.93;78.43
21664;BME280;10993;52.510;13.456;2024-01-27T15:33:11;56886.78;;;-146.93;77.37
21664;BME280;10993;52.510;13.456;2024-01-27T15:38:11;56866.53;;;-146.93;77.17
21664;BME280;10993;52.510;13.456;2024-01-27T15:43:13;56832.13;;;-146.93;77.50
21664;BME280;10993;52.510;13.456;2024-01-27T15:48:13;56852.34;;;-146.93;77.93
21664;BME280;10993;52.510;13.456;2024-01-27T15:53:13;56874.63;;;-146.93;77.13
21664;BME280;10993;52.510;13.456;2024-01-27T15:58:15;56872.59;;;-146.93;77.15
21664;BME280;10993;52.510;13.456;2024-01-27T16:03:15;56876.66;;;-146.93;77.32
21664;BME280;10993;52.510;13.456;2024-01-27T16:08:16;56836.16;;;-146.93;76.89
21664;BME280;10993;52.510;13.456;2024-01-27T16:13:18;56874.63;;;-146.93;77.79
21664;BME280;10993;52.510;13.456;2024-01-27T16:18:18;56894.88;;;-146.93;77.37
21664;BME280;10993;52.510;13.456;2024-01-27T16:23:19;56900.97;;;-146.93;77.88
21664;BME280;10993;52.510;13.456;2024-01-27T16:28:20;56917.16;;;-146.93;78.99
21664;BME280;10993;52.510;13.456;2024-01-27T16:33:21;57237.09;;;-146.93;79.54
21664;BME280;10993;52.510;13.456;2024-01-27T16:38:21;56868.56;;;-146.93;80.37
21664;BME280;10993;52.510;13.456;2024-01-27T16:43:23;58363.25;;;-146.93;81.92
21664;BME280;10993;52.510;13.456;2024-01-27T16:48:24;56779.47;;;-146.93;82.41
21664;BME280;10993;52.510;13.456;2024-01-27T16:53:24;56990.06;;;-146.93;82.33
21664;BME280;10993;52.510;13.456;2024-01-27T16:58:27;57067.00;;;-146.93;83.15
21664;BME280;10993;52.510;13.456;2024-01-27T17:03:27;56996.13;;;-146.93;82.80
21664;BME280;10993;52.510;13.456;2024-01-27T17:08:28;57046.75;;;-146.93;83.23
21664;BME280;10993;52.510;13.456;2024-01-27T17:13:29;57034.59;;;-146.93;83.22
21664;BME280;10993;52.510;13.456;2024-01-27T17:18:31;57016.38;;;-146.93;83.18
21664;BME280;10993;52.510;13.456;2024-01-27T17:23:32;57018.41;;;-146.93;83.21
21664;BME280;10993;52.510;13.456;2024-01-27T17:28:33;57058.91;;;-146.93;84.39
21664;BME280;10993;52.510;13.456;2024-01-27T17:33:34;57030.56;;;-146.93;84.18
21664;BME280;10993;52.510;13.456;2024-01-27T17:38:34;57064.97;;;-146.93;84.41
21664;BME280;10993;52.510;13.456;2024-01-27T17:43:36;57044.72;;;-146.93;84.20
21664;BME280;10993;52.510;13.456;2024-01-27T17:48:36;57089.28;;;-146.93;84.23
21664;BME280;10993;52.510;13.456;2024-01-27T17:53:37;57075.09;;;-146.93;84.32
21664;BME280;10993;52.510;13.456;2024-01-27T17:58:39;57038.66;;;-146.93;83.67
21664;BME280;10993;52.510;13.456;2024-01-27T18:03:40;57081.19;;;-146.93;84.13
21664;BME280;10993;52.510;13.456;2024-01-27T18:08:41;57095.34;;;-146.93;84.41
21664;BME280;10993;52.510;13.456;2024-01-27T18:13:42;57117.63;;;-146.93;84.59
21664;BME280;10993;52.510;13.456;2024-01-27T18:18:46;57119.66;;;-146.93;85.33
21664;BME280;10993;52.510;13.456;2024-01-27T18:23:47;57135.84;;;-146.93;85.30
21664;BME280;10993;52.510;13.456;2024-01-27T18:28:49;57123.69;;;-146.93;85.03
21664;BME280;10993;52.510;13.456;2024-01-27T18:33:49;57107.50;;;-146.93;84.92
21664;BME280;10993;52.510;13.456;2024-01-27T18:38:51;57111.56;;;-146.93;84.94
21664;BME280;10993;52.510;13.456;2024-01-27T18:43:53;57135.84;;;-146.93;84.74
21664;BME280;10993;52.510;13.456;2024-01-27T18:48:53;57127.75;;;-146.93;85.82
21664;BME280;10993;52.510;13.456;2024-01-27T18:53:54;57154.06;;;-146.93;85.36
21664;BME280;10993;52.510;13.456;2024-01-27T18:58:55;57196.59;;;-146.93;86.05
21664;BME280;10993;52.510;13.456;2024-01-27T19:03:56;57162.19;;;-146.93;86.41
21664;BME280;10993;52.510;13.456;2024-01-27T19:08:57;57156.09;;;-146.93;86.18
21664;BME280;10993;52.510;13.456;2024-01-27T19:14:01;57208.75;;;-146.93;86.71
21664;BME280;10993;52.510;13.456;2024-01-27T19:19:02;57224.97;;;-146.93;86.96
21664;BME280;10993;52.510;13.456;2024-01-27T19:24:04;57216.84;;;-146.93;86.54
21664;BME280;10993;52.510;13.456;2024-01-27T19:29:06;57257.34;;;-146.93;87.01
21664;BME280;10993;52.510;13.456;2024-01-27T19:34:06;57184.44;;;-146.93;87.48
21664;BME280;10993;52.510;13.456;2024-01-27T19:39:09;57273.56;;;-146.93;87.99
21664;BME280;10993;52.510;13.456;2024-01-27T19:44:14;57303.94;;;-146.93;87.97
21664;BME280;10993;52.510;13.456;2024-01-27T19:49:22;57297.84;;;-146.93;88.07
21664;BME280;10993;52.510;13.456;2024-01-27T19:54:31;57488.22;;;-146.93;88.54
21664;BME280;10993;52.510;13.456;2024-01-27T19:59:34;57366.72;;;-146.93;88.80
21664;BME280;10993;52.510;13.456;2024-01-27T20:04:36;57459.88;;;-146.93;89.75
21664;BME280;10993;52.510;13.456;2024-01-27T20:09:48;57480.13;;;-146.93;89.82
21664;BME280;10993;52.510;13.456;2024-01-27T20:14:59;57480.13;;;-146.93;90.12
21664;BME280;10993;52.510;13.456;2024-01-27T20:20:16;57480.13;;;-146.93;90.02
21664;BME280;10993;52.510;13.456;2024-01-27T20:25:24;57534.81;;;-146.93;90.24
21664;BME280;10993;52.510;13.456;2024-01-27T20:30:29;57472.03;;;-146.93;90.30
21664;BME280;10993;52.510;13.456;2024-01-27T20:35:39;57536.84;;;-146.93;90.45
21664;BME280;10993;52.510;13.456;2024-01-27T20:40:52;57569.25;;;-146.93;90.63
21664;BME280;10993;52.510;13.456;2024-01-27T20:45:58;57597.59;;;-146.93;90.87
21664;BME280;10993;52.510;13.456;2024-01-27T20:51:02;57536.84;;;-146.93;90.33
21664;BME280;10993;52.510;13.456;2024-01-27T20:56:04;57557.09;;;-146.93;90.52
21664;BME280;10993;52.510;13.456;2024-01-27T21:01:12;57472.03;;;-146.93;90.18
21664;BME280;10993;52.510;13.456;2024-01-27T21:06:17;57508.47;;;-146.93;90.36
21664;BME280;10993;52.510;13.456;2024-01-27T21:11:21;57447.72;;;-146.93;90.49
21664;BME280;10993;52.510;13.456;2024-01-27T21:16:31;57603.66;;;-146.93;90.80
21664;BME280;10993;52.510;13.456;2024-01-27T21:21:50;57648.22;;;-146.93;91.22
21664;BME280;10993;52.510;13.456;2024-01-27T21:27:00;57310.00;;;-146.93;90.94
21664;BME280;10993;52.510;13.456;2024-01-27T21:32:09;57575.31;;;-146.93;90.72
21664;BME280;10993;52.510;13.456;2024-01-27T21:37:10;57488.22;;;-146.93;90.83
21664;BME280;10993;52.510;13.456;2024-01-27T21:42:12;57553.03;;;-146.93;90.38
21664;BME280;10993;52.510;13.456;2024-01-27T21:47:18;57856.84;;;-146.93;90.68
21664;BME280;10993;52.510;13.456;2024-01-27T21:52:20;57587.47;;;-146.93;90.72
21664;BME280;10993;52.510;13.456;2024-01-27T21:57:21;57524.69;;;-146.93;90.77
21664;BME280;10993;52.510;13.456;2024-01-27T22:02:23;57530.75;;;-146.93;90.56
21664;BME280;10993;52.510;13.456;2024-01-27T22:07:26;57603.66;;;-146.93;90.98
21664;BME280;10993;52.510;13.456;2024-01-27T22:12:27;57561.13;;;-146.93;90.17
21664;BME280;10993;52.510;13.456;2024-01-27T22:17:28;57601.66;;;-146.93;90.70
21664;BME280;10993;52.510;13.456;2024-01-27T22:22:29;57567.22;;;-146.93;90.88
21664;BME280;10993;52.510;13.456;2024-01-27T22:27:29;57557.09;;;-146.93;90.99
21664;BME280;10993;52.510;13.456;2024-01-27T22:32:31;57536.84;;;-146.93;91.07
21664;BME280;10993;52.510;13.456;2024-01-27T22:37:31;57640.13;;;-146.93;91.22
21664;BME280;10993;52.510;13.456;2024-01-27T22:42:32;57603.66;;;-146.93;91.23
21664;BME280;10993;52.510;13.456;2024-01-27T22:47:34;57567.22;;;-146.93;90.80
21664;BME280;10993;52.510;13.456;2024-01-27T22:52:35;57378.88;;;-146.93;90.68
21664;BME280;10993;52.510;13.456;2024-01-27T22:57:35;57553.03;;;-146.93;90.78
21664;BME280;10993;52.510;13.456;2024-01-27T23:02:38;57625.94;;;-146.93;91.29
21664;BME280;10993;52.510;13.456;2024-01-27T23:07:38;57603.66;;;-146.93;90.95
21664;BME280;10993;52.510;13.456;2024-01-27T23:12:39;57674.56;;;-146.93;91.56
21664;BME280;10993;52.510;13.456;2024-01-27T23:17:41;57650.25;;;-146.93;91.59
21664;BME280;10993;52.510;13.456;2024-01-27T23:22:41;57544.94;;;-146.93;91.45
21664;BME280;10993;52.510;13.456;2024-01-27T23:27:42;57583.41;;;-146.93;91.29
21664;BME280;10993;52.510;13.456;2024-01-27T23:32:43;57666.44;;;-146.93;91.90
21664;BME280;10993;52.510;13.456;2024-01-27T23:37:44;57609.75;;;-146.93;91.33
21664;BME280;10993;52.510;13.456;2024-01-27T23:42:44;57630.00;;;-146.93;91.66
21664;BME280;10993;52.510;13.456;2024-01-27T23:47:46;57696.84;;;-146.93;92.05
21664;BME280;10993;52.510;13.456;2024-01-27T23:52:46;57648.22;;;-146.93;91.99
21664;BME280;10993;52.510;13.456;2024-01-27T23:57:49;57625.94;;;-146.93;92.23
